createdAt,value
2017-05-21T00:00:24.029Z,9.99
2017-05-21T00:01:37.921Z,9.95
2017-05-21T00:02:51.495Z,9.97
2017-05-21T00:04:05.437Z,9.9
2017-05-21T00:05:19.021Z,9.9
2017-05-21T00:06:32.753Z,9.87
2017-05-21T00:07:46.773Z,9.85
2017-05-21T00:09:00.343Z,9.81
2017-05-21T00:10:14.135Z,9.81
2017-05-21T00:11:27.726Z,9.97
2017-05-21T00:12:41.296Z,9.9
2017-05-21T00:13:55.253Z,9.94
2017-05-21T00:15:08.803Z,9.99
2017-05-21T00:16:22.678Z,9.9
2017-05-21T00:17:36.217Z,9.8
2017-05-21T00:18:49.723Z,9.76
2017-05-21T00:20:03.300Z,9.74
2017-05-21T00:21:16.815Z,9.63
2017-05-21T00:22:30.678Z,9.62
2017-05-21T00:23:44.237Z,9.69
2017-05-21T00:24:57.853Z,9.7
2017-05-21T00:26:11.401Z,9.69
2017-05-21T00:27:24.935Z,9.76
2017-05-21T00:28:38.773Z,9.77
2017-05-21T00:29:52.386Z,9.9
2017-05-21T00:31:05.960Z,9.97
2017-05-21T00:32:19.528Z,9.99
2017-05-21T00:33:33.154Z,9.94
2017-05-21T00:34:47.360Z,9.84
2017-05-21T00:36:00.964Z,9.87
2017-05-21T00:37:14.498Z,9.77
2017-05-21T00:38:28.357Z,9.7
2017-05-21T00:39:41.955Z,9.7
2017-05-21T00:40:55.838Z,9.63
2017-05-21T00:42:09.634Z,9.55
2017-05-21T00:43:23.206Z,9.54
2017-05-21T00:44:36.787Z,9.48
2017-05-21T00:45:50.350Z,9.48
2017-05-21T00:47:04.189Z,9.56
2017-05-21T00:48:17.731Z,9.69
2017-05-21T00:49:31.328Z,9.58
2017-05-21T00:50:44.884Z,9.7
2017-05-21T00:51:58.421Z,9.69
2017-05-21T00:53:12.285Z,9.51
2017-05-21T00:54:25.816Z,9.52
2017-05-21T00:55:39.333Z,9.49
2017-05-21T00:56:52.896Z,9.36
2017-05-21T00:58:07.645Z,9.33
2017-05-21T00:59:21.536Z,9.33
2017-05-21T01:00:35.413Z,9.33
2017-05-21T01:01:49.028Z,9.29
2017-05-21T01:03:02.582Z,9.3
2017-05-21T01:04:16.214Z,9.44
2017-05-21T01:05:30.056Z,9.31
2017-05-21T01:06:43.655Z,9.36
2017-05-21T01:07:57.557Z,9.29
2017-05-21T01:09:11.112Z,9.33
2017-05-21T01:10:24.772Z,9.4
2017-05-21T01:11:38.618Z,9.33
2017-05-21T01:12:52.293Z,9.29
2017-05-21T01:14:06.120Z,9.42
2017-05-21T01:15:19.728Z,9.59
2017-05-21T01:16:33.294Z,9.55
2017-05-21T01:17:47.220Z,9.56
2017-05-21T01:19:00.793Z,9.48
2017-05-21T01:20:14.372Z,9.34
2017-05-21T01:21:27.876Z,9.37
2017-05-21T01:22:41.427Z,9.33
2017-05-21T01:23:55.355Z,9.37
2017-05-21T01:25:10.102Z,9.39
2017-05-21T01:26:23.614Z,9.3
2017-05-21T01:27:37.142Z,9.27
2017-05-21T01:28:50.808Z,9.24
2017-05-21T01:30:04.684Z,9.18
2017-05-21T01:31:18.303Z,9.16
2017-05-21T01:32:31.827Z,9.15
2017-05-21T01:33:45.410Z,9.19
2017-05-21T01:34:58.962Z,9.16
2017-05-21T01:36:12.798Z,9.13
2017-05-21T01:37:26.624Z,9.16
2017-05-21T01:38:40.135Z,9.11
2017-05-21T01:39:53.694Z,9.16
2017-05-21T01:41:07.195Z,9.16
2017-05-21T01:42:21.016Z,9.21
2017-05-21T01:43:34.707Z,9.18
2017-05-21T01:44:48.386Z,9.16
2017-05-21T01:46:01.955Z,9
2017-05-21T01:47:15.508Z,9
2017-05-21T01:48:29.690Z,8.96
2017-05-21T01:49:43.641Z,8.95
2017-05-21T01:50:57.276Z,8.81
2017-05-21T01:52:10.837Z,8.84
2017-05-21T01:53:24.456Z,8.74
2017-05-21T01:54:38.625Z,8.87
2017-05-21T01:55:52.249Z,8.77
2017-05-21T01:57:05.812Z,8.84
2017-05-21T01:58:19.357Z,8.77
2017-05-21T01:59:32.876Z,8.71
2017-05-21T02:00:46.810Z,8.86
2017-05-21T02:02:00.341Z,8.79
2017-05-21T02:03:13.936Z,8.81
2017-05-21T02:04:27.529Z,8.79
2017-05-21T02:05:41.579Z,8.82
2017-05-21T02:06:55.741Z,8.89
2017-05-21T02:08:09.354Z,8.77
2017-05-21T02:09:22.893Z,8.79
2017-05-21T02:10:36.438Z,8.77
2017-05-21T02:11:49.992Z,8.75
2017-05-21T02:13:03.962Z,8.75
2017-05-21T02:14:17.607Z,8.75
2017-05-21T02:15:31.196Z,8.59
2017-05-21T02:16:44.748Z,8.63
2017-05-21T02:17:58.315Z,8.74
2017-05-21T02:19:12.267Z,8.74
2017-05-21T02:20:25.830Z,8.66
2017-05-21T02:21:39.349Z,8.74
2017-05-21T02:22:52.856Z,8.64
2017-05-21T02:24:06.434Z,8.63
2017-05-21T02:25:20.402Z,8.69
2017-05-21T02:26:33.934Z,8.68
2017-05-21T02:27:47.552Z,8.72
2017-05-21T02:29:01.154Z,8.75
2017-05-21T02:30:14.841Z,8.66
2017-05-21T02:31:28.697Z,8.68
2017-05-21T02:32:42.203Z,8.64
2017-05-21T02:33:55.871Z,8.59
2017-05-21T02:35:09.430Z,8.6
2017-05-21T02:36:22.961Z,8.64
2017-05-21T02:37:36.836Z,8.56
2017-05-21T02:38:50.376Z,8.49
2017-05-21T02:40:04.025Z,8.54
2017-05-21T02:41:17.566Z,8.56
2017-05-21T02:42:31.241Z,8.57
2017-05-21T02:43:45.039Z,8.61
2017-05-21T02:44:58.573Z,8.64
2017-05-21T02:46:12.156Z,8.59
2017-05-21T02:47:25.702Z,8.57
2017-05-21T02:48:39.243Z,8.6
2017-05-21T02:49:53.084Z,8.59
2017-05-21T02:51:06.672Z,8.61
2017-05-21T02:52:20.209Z,8.59
2017-05-21T02:53:33.747Z,8.36
2017-05-21T02:54:47.257Z,8.39
2017-05-21T02:56:01.234Z,8.34
2017-05-21T02:57:14.830Z,8.32
2017-05-21T02:58:28.348Z,8.42
2017-05-21T02:59:41.873Z,8.63
2017-05-21T03:00:55.465Z,8.78
2017-05-21T03:02:09.397Z,8.96
2017-05-21T03:03:23.161Z,9.18
2017-05-21T03:04:36.710Z,9.33
2017-05-21T03:05:50.274Z,9.31
2017-05-21T03:07:03.828Z,9.36
2017-05-21T03:08:17.751Z,9.49
2017-05-21T03:09:31.391Z,9.39
2017-05-21T03:10:44.892Z,9.44
2017-05-21T03:11:58.541Z,9.39
2017-05-21T03:13:12.139Z,9.55
2017-05-21T03:14:26.431Z,9.58
2017-05-21T03:15:40.011Z,9.54
2017-05-21T03:16:53.564Z,9.67
2017-05-21T03:18:07.236Z,9.69
2017-05-21T03:19:21.083Z,9.69
2017-05-21T03:20:34.974Z,9.77
2017-05-21T03:21:48.503Z,9.76
2017-05-21T03:23:02.013Z,9.74
2017-05-21T03:24:16.052Z,9.81
2017-05-21T03:25:29.584Z,9.77
2017-05-21T03:26:43.465Z,9.8
2017-05-21T03:27:56.979Z,9.85
2017-05-21T03:29:10.551Z,9.9
2017-05-21T03:30:24.062Z,9.85
2017-05-21T03:31:38.104Z,9.8
2017-05-21T03:32:52.106Z,9.88
2017-05-21T03:34:05.683Z,9.85
2017-05-21T03:35:19.209Z,9.95
2017-05-21T03:36:32.752Z,9.99
2017-05-21T03:37:46.383Z,9.94
2017-05-21T03:39:00.282Z,9.76
2017-05-21T03:40:14.050Z,9.72
2017-05-21T03:41:27.563Z,9.64
2017-05-21T03:42:41.114Z,9.67
2017-05-21T03:43:54.981Z,9.7
2017-05-21T03:45:08.845Z,9.63
2017-05-21T03:46:22.432Z,9.7
2017-05-21T03:47:36.147Z,9.56
2017-05-21T03:48:49.715Z,9.44
2017-05-21T03:50:03.783Z,9.48
2017-05-21T03:51:17.625Z,9.4
2017-05-21T03:52:31.163Z,9.39
2017-05-21T03:53:44.706Z,9.44
2017-05-21T03:54:58.407Z,9.85
2017-05-21T03:56:12.089Z,11.16
2017-05-21T03:57:25.981Z,12.69
2017-05-21T03:58:39.504Z,13.82
2017-05-21T03:59:53.061Z,14.53
2017-05-21T04:01:06.723Z,15.04
2017-05-21T04:02:20.232Z,15.05
2017-05-21T04:03:34.131Z,15.3
2017-05-21T04:04:47.661Z,15.92
2017-05-21T04:06:01.254Z,16.57
2017-05-21T04:07:14.799Z,17.02
2017-05-21T04:08:28.359Z,17.56
2017-05-21T04:09:42.239Z,18.12
2017-05-21T04:10:55.811Z,18.63
2017-05-21T04:12:09.668Z,18.85
2017-05-21T04:13:23.251Z,19.17
2017-05-21T04:14:36.874Z,19.48
2017-05-21T04:15:50.708Z,20.21
2017-05-21T04:17:04.671Z,20.82
2017-05-21T04:18:18.221Z,21.17
2017-05-21T04:19:31.902Z,21.54
2017-05-21T04:20:45.790Z,21.96
2017-05-21T04:22:00.003Z,20.85
2017-05-21T04:23:13.730Z,20.15
2017-05-21T04:24:27.368Z,20.12
2017-05-21T04:25:40.965Z,21.05
2017-05-21T04:26:54.581Z,21.53
2017-05-21T04:28:08.492Z,21.84
2017-05-21T04:29:22.161Z,22.3
2017-05-21T04:30:35.754Z,22.36
2017-05-21T04:31:49.332Z,22.49
2017-05-21T04:33:02.983Z,23.06
2017-05-21T04:34:16.829Z,23.23
2017-05-21T04:35:30.592Z,23.69
2017-05-21T04:36:44.122Z,23.86
2017-05-21T04:37:57.866Z,23.64
2017-05-21T04:39:11.437Z,23.28
2017-05-21T04:40:25.355Z,23.91
2017-05-21T04:41:38.925Z,24.19
2017-05-21T04:42:52.542Z,24.69
2017-05-21T04:44:06.253Z,24.61
2017-05-21T04:45:19.828Z,25
2017-05-21T04:46:33.772Z,25.63
2017-05-21T04:47:47.369Z,26.08
2017-05-21T04:49:01.013Z,26.1
2017-05-21T04:50:14.593Z,26.48
2017-05-21T04:51:28.266Z,26.41
2017-05-21T04:52:42.174Z,26.55
2017-05-21T04:53:56.389Z,26.89
2017-05-21T04:55:09.937Z,26.78
2017-05-21T04:56:23.485Z,26.81
2017-05-21T04:57:37.129Z,26.98
2017-05-21T04:58:51.145Z,26.6
2017-05-21T05:00:04.804Z,26.39
2017-05-21T05:01:18.511Z,26.61
2017-05-21T05:02:32.123Z,27.18
2017-05-21T05:03:45.714Z,27.52
2017-05-21T05:04:59.831Z,27.4
2017-05-21T05:06:13.407Z,27.43
2017-05-21T05:07:27.150Z,27.58
2017-05-21T05:08:40.697Z,27.63
2017-05-21T05:09:54.500Z,27.1
2017-05-21T05:11:08.345Z,26.76
2017-05-21T05:12:21.891Z,26.16
2017-05-21T05:13:35.459Z,25.92
2017-05-21T05:14:49.026Z,25.48
2017-05-21T05:16:02.793Z,25.22
2017-05-21T05:17:16.678Z,24.77
2017-05-21T05:18:30.225Z,24.68
2017-05-21T05:19:43.837Z,24.58
2017-05-21T05:20:57.439Z,24.21
2017-05-21T05:22:11.123Z,24.18
2017-05-21T05:23:24.966Z,24.11
2017-05-21T05:24:38.493Z,24.24
2017-05-21T05:25:52.119Z,23.94
2017-05-21T05:27:05.710Z,22.7
2017-05-21T05:28:22.595Z,21.17
2017-05-21T05:29:36.202Z,20.29
2017-05-21T05:30:50.406Z,19.6
2017-05-21T05:32:04.004Z,19.09
2017-05-21T05:33:17.624Z,19.04
2017-05-21T05:34:31.156Z,18.85
2017-05-21T05:35:45.030Z,18.67
2017-05-21T05:36:58.637Z,18.21
2017-05-21T05:38:12.180Z,17.94
2017-05-21T05:39:25.724Z,17.78
2017-05-21T05:40:39.259Z,17.69
2017-05-21T05:41:53.239Z,17.52
2017-05-21T05:43:06.790Z,17.31
2017-05-21T05:44:20.348Z,17.27
2017-05-21T05:45:33.942Z,17.32
2017-05-21T05:46:47.841Z,17.34
2017-05-21T05:48:01.775Z,17.12
2017-05-21T05:49:15.666Z,17.19
2017-05-21T05:50:29.498Z,17.04
2017-05-21T05:51:43.374Z,17.02
2017-05-21T05:52:57.001Z,16.92
2017-05-21T05:54:10.908Z,16.92
2017-05-21T05:55:24.493Z,16.86
2017-05-21T05:56:38.154Z,16.69
2017-05-21T05:57:52.067Z,16.51
2017-05-21T05:59:05.825Z,16.44
2017-05-21T06:00:19.656Z,16.41
2017-05-21T06:01:33.224Z,16.34
2017-05-21T06:02:46.865Z,16.43
2017-05-21T06:04:00.479Z,16.37
2017-05-21T06:05:14.015Z,16.41
2017-05-21T06:06:27.896Z,16.46
2017-05-21T06:07:41.486Z,16.21
2017-05-21T06:08:55.057Z,16.29
2017-05-21T06:10:08.786Z,16.22
2017-05-21T06:11:22.486Z,16.21
2017-05-21T06:12:36.354Z,16.03
2017-05-21T06:13:49.978Z,15.91
2017-05-21T06:15:03.604Z,15.96
2017-05-21T06:16:17.135Z,16.02
2017-05-21T06:17:30.958Z,15.78
2017-05-21T06:18:44.853Z,15.76
2017-05-21T06:19:58.395Z,15.92
2017-05-21T06:21:12.024Z,15.92
2017-05-21T06:22:25.599Z,15.91
2017-05-21T06:23:39.632Z,15.76
2017-05-21T06:24:53.483Z,15.67
2017-05-21T06:26:07.089Z,15.83
2017-05-21T06:27:20.644Z,15.85
2017-05-21T06:28:34.176Z,15.81
2017-05-21T06:29:47.910Z,15.65
2017-05-21T06:31:01.808Z,15.55
2017-05-21T06:32:15.357Z,15.52
2017-05-21T06:33:29.227Z,15.59
2017-05-21T06:34:42.807Z,15.5
2017-05-21T06:35:56.395Z,15.59
2017-05-21T06:37:10.392Z,15.5
2017-05-21T06:38:23.945Z,15.57
2017-05-21T06:39:38.130Z,15.52
2017-05-21T06:40:51.649Z,15.41
2017-05-21T06:42:05.228Z,15.47
2017-05-21T06:43:19.075Z,15.5
2017-05-21T06:44:32.633Z,15.5
2017-05-21T06:45:46.222Z,15.47
2017-05-21T06:47:00.140Z,15.29
2017-05-21T06:48:13.713Z,15.35
2017-05-21T06:49:27.631Z,15.33
2017-05-21T06:50:41.215Z,15.37
2017-05-21T06:51:54.910Z,15.39
2017-05-21T06:53:08.716Z,15.37
2017-05-21T06:54:22.615Z,15.51
2017-05-21T06:55:36.494Z,15.6
2017-05-21T06:56:50.169Z,15.55
2017-05-21T06:58:04.118Z,15.65
2017-05-21T06:59:17.719Z,15.65
2017-05-21T07:00:31.346Z,15.69
2017-05-21T07:01:45.343Z,15.62
2017-05-21T07:02:59.048Z,15.67
2017-05-21T07:04:12.618Z,15.76
2017-05-21T07:05:26.193Z,15.83
2017-05-21T07:06:39.863Z,15.81
2017-05-21T07:07:53.790Z,15.67
2017-05-21T07:09:07.396Z,15.75
2017-05-21T07:10:20.999Z,15.85
2017-05-21T07:11:34.556Z,15.85
2017-05-21T07:12:48.234Z,15.9
2017-05-21T07:14:02.209Z,15.78
2017-05-21T07:15:15.763Z,15.78
2017-05-21T07:16:29.296Z,15.75
2017-05-21T07:17:59.046Z,15.94
2017-05-21T07:19:14.539Z,15.96
2017-05-21T07:20:29.547Z,15.85
2017-05-21T07:21:43.115Z,16
2017-05-21T07:22:56.718Z,16.03
2017-05-21T07:24:10.398Z,15.99
2017-05-21T07:25:23.912Z,15.94
2017-05-21T07:26:37.786Z,15.88
2017-05-21T07:27:52.042Z,16.03
2017-05-21T07:29:06.597Z,16.22
2017-05-21T07:30:26.403Z,16.21
2017-05-21T07:31:47.027Z,16.32
2017-05-21T07:33:13.308Z,16.46
2017-05-21T07:34:32.609Z,16.47
2017-05-21T07:35:47.800Z,16.54
2017-05-21T07:37:09.728Z,16.54
2017-05-21T07:38:23.585Z,16.62
2017-05-21T07:39:37.221Z,16.66
2017-05-21T07:40:50.780Z,16.74
2017-05-21T07:42:04.369Z,16.8
2017-05-21T07:43:17.999Z,16.83
2017-05-21T07:44:32.122Z,16.86
2017-05-21T07:45:45.737Z,16.86
2017-05-21T07:46:59.421Z,16.8
2017-05-21T07:48:13.021Z,16.87
2017-05-21T07:49:26.612Z,16.95
2017-05-21T07:50:40.532Z,17.04
2017-05-21T07:51:54.056Z,16.98
2017-05-21T07:53:07.638Z,16.87
2017-05-21T07:54:21.255Z,16.98
2017-05-21T07:55:34.852Z,16.91
2017-05-21T07:56:48.782Z,17.01
2017-05-21T07:58:02.345Z,17.09
2017-05-21T07:59:16.115Z,17.09
2017-05-21T08:00:30.083Z,17.17
2017-05-21T08:01:43.651Z,17.02
2017-05-21T08:02:59.321Z,17.09
2017-05-21T08:04:12.913Z,17.22
2017-05-21T08:05:26.982Z,17.13
2017-05-21T08:06:42.362Z,16.99
2017-05-21T08:07:59.881Z,17.09
2017-05-21T08:09:14.042Z,17.07
2017-05-21T08:10:27.664Z,17.27
2017-05-21T08:11:41.863Z,17.27
2017-05-21T08:12:55.583Z,17.34
2017-05-21T08:14:09.788Z,17.35
2017-05-21T08:15:28.879Z,17.52
2017-05-21T08:16:50.174Z,17.52
2017-05-21T08:18:10.343Z,17.59
2017-05-21T08:19:28.477Z,17.73
2017-05-21T08:20:45.157Z,17.9
2017-05-21T08:21:59.258Z,17.8
2017-05-21T08:23:13.279Z,17.8
2017-05-21T08:24:26.874Z,17.87
2017-05-21T08:25:41.158Z,17.86
2017-05-21T08:26:55.944Z,17.98
2017-05-21T08:28:11.637Z,17.93
2017-05-21T08:29:30.040Z,17.87
2017-05-21T08:30:48.269Z,17.9
2017-05-21T08:32:02.931Z,17.95
2017-05-21T08:33:31.649Z,18.02
2017-05-21T08:34:45.644Z,18.15
2017-05-21T08:35:59.290Z,18.12
2017-05-21T08:37:13.470Z,18.21
2017-05-21T08:38:27.172Z,18.24
2017-05-21T08:39:41.187Z,18.39
2017-05-21T08:40:54.785Z,18.33
2017-05-21T08:42:08.667Z,18.43
2017-05-21T08:43:22.816Z,18.51
2017-05-21T08:44:36.644Z,18.57
2017-05-21T08:45:51.178Z,18.57
2017-05-21T08:47:05.349Z,18.48
2017-05-21T08:48:20.356Z,18.43
2017-05-21T08:49:34.562Z,18.49
2017-05-21T08:50:48.838Z,18.52
2017-05-21T08:52:02.705Z,18.6
2017-05-21T08:53:16.449Z,18.55
2017-05-21T08:54:30.082Z,18.52
2017-05-21T08:55:44.313Z,18.63
2017-05-21T08:56:57.885Z,18.6
2017-05-21T08:58:11.823Z,18.7
2017-05-21T08:59:26.322Z,18.81
2017-05-21T09:00:39.886Z,18.73
2017-05-21T09:01:53.510Z,18.76
2017-05-21T09:03:07.229Z,18.74
2017-05-21T09:04:21.398Z,18.83
2017-05-21T09:05:34.963Z,18.76
2017-05-21T09:06:48.630Z,18.71
2017-05-21T09:08:02.570Z,18.67
2017-05-21T09:09:16.153Z,18.61
2017-05-21T09:10:30.090Z,18.67
2017-05-21T09:11:43.943Z,18.7
2017-05-21T09:12:57.605Z,18.74
2017-05-21T09:14:11.194Z,18.67
2017-05-21T09:15:24.858Z,18.63
2017-05-21T09:16:38.733Z,18.66
2017-05-21T09:17:52.749Z,18.67
2017-05-21T09:19:06.550Z,18.78
2017-05-21T09:20:20.122Z,18.74
2017-05-21T09:21:33.671Z,18.85
2017-05-21T09:22:47.554Z,18.86
2017-05-21T09:24:01.235Z,18.85
2017-05-21T09:25:14.899Z,18.83
2017-05-21T09:26:28.500Z,18.85
2017-05-21T09:27:42.068Z,18.97
2017-05-21T09:28:55.961Z,19.05
2017-05-21T09:30:09.703Z,19.05
2017-05-21T09:31:23.314Z,18.98
2017-05-21T09:32:36.848Z,19.16
2017-05-21T09:33:50.413Z,19.09
2017-05-21T09:35:04.290Z,19.11
2017-05-21T09:36:17.948Z,19.12
2017-05-21T09:37:31.530Z,19.15
2017-05-21T09:38:45.046Z,19.16
2017-05-21T09:39:58.635Z,19.12
2017-05-21T09:41:12.906Z,19.11
2017-05-21T09:42:26.777Z,19.27
2017-05-21T09:43:40.339Z,19.19
2017-05-21T09:44:54.128Z,19.35
2017-05-21T09:46:07.744Z,19.38
2017-05-21T09:47:21.710Z,19.35
2017-05-21T09:48:35.270Z,19.38
2017-05-21T09:49:48.904Z,19.42
2017-05-21T09:51:02.464Z,19.32
2017-05-21T09:52:16.145Z,19.27
2017-05-21T09:53:30.422Z,19.26
2017-05-21T09:54:43.985Z,19.34
2017-05-21T09:55:57.904Z,19.39
2017-05-21T09:57:11.538Z,19.52
2017-05-21T09:58:25.224Z,19.52
2017-05-21T09:59:39.077Z,19.55
2017-05-21T10:00:53.077Z,19.57
2017-05-21T10:02:06.684Z,19.55
2017-05-21T10:03:20.289Z,19.42
2017-05-21T10:04:33.879Z,19.55
2017-05-21T10:05:47.853Z,19.56
2017-05-21T10:07:01.402Z,19.62
2017-05-21T10:08:14.977Z,19.7
2017-05-21T10:09:28.736Z,19.59
2017-05-21T10:10:42.465Z,19.62
2017-05-21T10:11:56.397Z,19.66
2017-05-21T10:13:10.054Z,19.62
2017-05-21T10:14:23.631Z,19.53
2017-05-21T10:15:37.285Z,19.64
2017-05-21T10:16:50.848Z,19.64
2017-05-21T10:18:05.214Z,19.66
2017-05-21T10:19:19.103Z,19.62
2017-05-21T10:20:32.700Z,19.47
2017-05-21T10:21:48.225Z,19.53
2017-05-21T10:23:01.764Z,19.59
2017-05-21T10:24:15.742Z,19.64
2017-05-21T10:25:29.339Z,19.59
2017-05-21T10:26:43.081Z,19.62
2017-05-21T10:27:56.862Z,19.67
2017-05-21T10:29:10.516Z,19.6
2017-05-21T10:30:24.493Z,19.53
2017-05-21T10:31:38.329Z,19.47
2017-05-21T10:32:51.964Z,19.38
2017-05-21T10:34:05.753Z,19.42
2017-05-21T10:35:19.350Z,19.39
2017-05-21T10:36:33.738Z,19.49
2017-05-21T10:37:47.473Z,19.41
2017-05-21T10:39:01.055Z,19.47
2017-05-21T10:40:15.148Z,19.63
2017-05-21T10:41:28.755Z,19.6
2017-05-21T10:42:43.037Z,19.77
2017-05-21T10:43:56.977Z,19.85
2017-05-21T10:45:11.158Z,19.99
2017-05-21T10:46:24.773Z,20.11
2017-05-21T10:47:38.988Z,20.17
2017-05-21T10:48:53.017Z,20.11
2017-05-21T10:50:06.834Z,20.29
2017-05-21T10:51:20.681Z,20.26
2017-05-21T10:52:34.314Z,20.42
2017-05-21T10:53:47.991Z,20.4
2017-05-21T10:55:01.919Z,20.48
2017-05-21T10:56:15.623Z,20.49
2017-05-21T10:57:29.480Z,20.52
2017-05-21T10:58:43.795Z,20.66
2017-05-21T10:59:57.515Z,20.56
2017-05-21T11:01:11.675Z,20.56
2017-05-21T11:02:25.340Z,20.64
2017-05-21T11:03:39.008Z,20.5
2017-05-21T11:04:52.992Z,20.32
2017-05-21T11:06:06.664Z,20.27
2017-05-21T11:07:20.775Z,20.42
2017-05-21T11:08:34.889Z,20.44
2017-05-21T11:09:48.771Z,20.53
2017-05-21T11:11:02.511Z,20.52
2017-05-21T11:12:16.571Z,20.64
2017-05-21T11:13:30.717Z,20.66
2017-05-21T11:14:44.363Z,20.63
2017-05-21T11:15:57.958Z,20.59
2017-05-21T11:17:12.879Z,20.67
2017-05-21T11:18:26.555Z,20.73
2017-05-21T11:19:40.455Z,20.88
2017-05-21T11:20:54.184Z,20.85
2017-05-21T11:22:07.819Z,20.86
2017-05-21T11:23:21.762Z,20.83
2017-05-21T11:24:35.320Z,20.92
2017-05-21T11:25:49.217Z,21.05
2017-05-21T11:27:03.023Z,21.15
2017-05-21T11:28:16.709Z,21.19
2017-05-21T11:29:30.488Z,21.03
2017-05-21T11:30:44.139Z,21.08
2017-05-21T11:31:58.145Z,21.04
2017-05-21T11:33:12.117Z,21.08
2017-05-21T11:34:25.738Z,21.04
2017-05-21T11:35:39.429Z,20.88
2017-05-21T11:36:53.185Z,20.95
2017-05-21T11:38:07.129Z,20.89
2017-05-21T11:39:21.018Z,20.9
2017-05-21T11:40:34.622Z,20.95
2017-05-21T11:41:48.269Z,20.93
2017-05-21T11:43:02.004Z,20.82
2017-05-21T11:44:16.199Z,20.86
2017-05-21T11:45:29.825Z,20.92
2017-05-21T11:46:43.489Z,20.96
2017-05-21T11:47:57.081Z,21.08
2017-05-21T11:49:10.789Z,21.11
2017-05-21T11:50:25.959Z,21.22
2017-05-21T11:51:39.572Z,21.22
2017-05-21T11:52:53.383Z,21.33
2017-05-21T11:54:07.202Z,21.4
2017-05-21T11:55:20.884Z,21.5
2017-05-21T11:56:34.901Z,21.4
2017-05-21T11:57:48.559Z,21.4
2017-05-21T11:59:02.306Z,21.3
2017-05-21T12:00:15.944Z,21.32
2017-05-21T12:01:29.614Z,21.35
2017-05-21T12:02:43.659Z,21.62
2017-05-21T12:03:57.297Z,21.66
2017-05-21T12:05:11.219Z,21.89
2017-05-21T12:06:24.927Z,21.84
2017-05-21T12:07:38.677Z,21.77
2017-05-21T12:08:52.548Z,21.85
2017-05-21T12:10:06.268Z,22
2017-05-21T12:11:19.953Z,22.08
2017-05-21T12:12:33.769Z,22.15
2017-05-21T12:13:47.502Z,22.25
2017-05-21T12:15:01.583Z,22.28
2017-05-21T12:16:15.189Z,22.31
2017-05-21T12:17:28.862Z,22.37
2017-05-21T12:18:42.687Z,22.16
2017-05-21T12:19:56.631Z,22.07
2017-05-21T12:21:10.566Z,22.04
2017-05-21T12:22:24.396Z,22.08
2017-05-21T12:23:38.088Z,22.07
2017-05-21T12:24:51.817Z,21.88
2017-05-21T12:26:05.817Z,21.81
2017-05-21T12:27:19.722Z,21.81
2017-05-21T12:28:33.737Z,21.83
2017-05-21T12:29:47.428Z,21.81
2017-05-21T12:31:01.448Z,21.53
2017-05-21T12:32:16.331Z,21.48
2017-05-21T12:33:30.326Z,21.48
2017-05-21T12:34:43.980Z,21.56
2017-05-21T12:35:57.635Z,21.4
2017-05-21T12:37:11.407Z,21.51
2017-05-21T12:38:25.046Z,21.59
2017-05-21T12:39:38.985Z,21.59
2017-05-21T12:40:52.639Z,21.62
2017-05-21T12:42:06.260Z,21.66
2017-05-21T12:43:20.055Z,21.54
2017-05-21T12:44:33.652Z,21.58
2017-05-21T12:45:47.607Z,21.56
2017-05-21T12:47:01.210Z,21.58
2017-05-21T12:48:14.815Z,21.6
2017-05-21T12:49:28.442Z,21.66
2017-05-21T12:50:42.031Z,21.72
2017-05-21T12:51:56.194Z,21.84
2017-05-21T12:53:09.798Z,22
2017-05-21T12:54:23.392Z,21.99
2017-05-21T12:55:37.046Z,22.12
2017-05-21T12:56:50.703Z,22.14
2017-05-21T12:58:04.541Z,22.43
2017-05-21T12:59:18.151Z,22.7
2017-05-21T13:00:31.844Z,23.02
2017-05-21T13:01:45.487Z,23.07
2017-05-21T13:02:59.270Z,23.02
2017-05-21T13:04:13.629Z,23.2
2017-05-21T13:05:27.201Z,23.07
2017-05-21T13:06:40.767Z,23.04
2017-05-21T13:07:54.463Z,22.96
2017-05-21T13:09:08.123Z,22.96
2017-05-21T13:10:22.047Z,22.95
2017-05-21T13:11:35.664Z,22.84
2017-05-21T13:12:49.387Z,22.78
2017-05-21T13:14:03.038Z,22.7
2017-05-21T13:15:16.651Z,22.65
2017-05-21T13:16:30.509Z,22.74
2017-05-21T13:17:44.331Z,22.73
2017-05-21T13:18:57.923Z,22.84
2017-05-21T13:20:11.454Z,22.62
2017-05-21T13:21:25.151Z,22.46
2017-05-21T13:22:39.202Z,22.34
2017-05-21T13:23:52.822Z,22.3
2017-05-21T13:25:06.488Z,22.3
2017-05-21T13:26:20.434Z,22.33
2017-05-21T13:27:34.092Z,22.4
2017-05-21T13:28:48.150Z,22.44
2017-05-21T13:30:02.095Z,22.53
2017-05-21T13:31:15.771Z,22.7
2017-05-21T13:32:29.361Z,22.68
2017-05-21T13:33:43.028Z,22.7
2017-05-21T13:34:57.217Z,22.88
2017-05-21T13:36:10.776Z,22.99
2017-05-21T13:37:24.716Z,22.96
2017-05-21T13:38:38.276Z,23.1
2017-05-21T13:39:52.147Z,23.33
2017-05-21T13:41:06.354Z,23.37
2017-05-21T13:42:19.977Z,23.49
2017-05-21T13:43:33.909Z,23.51
2017-05-21T13:44:47.744Z,23.29
2017-05-21T13:46:01.485Z,23.36
2017-05-21T13:47:15.909Z,23.11
2017-05-21T13:48:29.972Z,22.99
2017-05-21T13:49:43.617Z,22.95
2017-05-21T13:50:57.231Z,22.59
2017-05-21T13:52:10.835Z,22.47
2017-05-21T13:53:24.772Z,22.47
2017-05-21T13:54:38.522Z,22.41
2017-05-21T13:55:52.209Z,22.38
2017-05-21T13:57:05.806Z,22.33
2017-05-21T13:58:19.347Z,22.33
2017-05-21T13:59:33.271Z,22.31
2017-05-21T14:00:46.943Z,22.15
2017-05-21T14:02:00.510Z,22.07
2017-05-21T14:03:14.120Z,22.08
2017-05-21T14:04:27.788Z,22.1
2017-05-21T14:05:41.880Z,22.08
2017-05-21T14:06:55.462Z,22.16
2017-05-21T14:08:09.089Z,22.21
2017-05-21T14:09:22.686Z,22.28
2017-05-21T14:10:36.335Z,22.33
2017-05-21T14:11:51.039Z,22.31
2017-05-21T14:13:05.006Z,22.34
2017-05-21T14:14:18.568Z,22.36
2017-05-21T14:15:32.218Z,22.38
2017-05-21T14:16:46.177Z,22.43
2017-05-21T14:18:00.112Z,22.41
2017-05-21T14:19:13.652Z,22.4
2017-05-21T14:20:27.386Z,22.49
2017-05-21T14:21:40.980Z,22.56
2017-05-21T14:22:54.529Z,22.63
2017-05-21T14:24:08.425Z,22.73
2017-05-21T14:25:21.991Z,22.74
2017-05-21T14:26:35.987Z,22.65
2017-05-21T14:27:49.647Z,22.93
2017-05-21T14:29:03.297Z,23.16
2017-05-21T14:30:17.152Z,23.26
2017-05-21T14:31:30.718Z,23.34
2017-05-21T14:32:44.700Z,23.51
2017-05-21T14:33:58.338Z,23.42
2017-05-21T14:35:11.954Z,23.52
2017-05-21T14:36:25.912Z,23.52
2017-05-21T14:37:39.645Z,23.54
2017-05-21T14:38:53.751Z,23.44
2017-05-21T14:40:07.349Z,23.42
2017-05-21T14:41:21.025Z,23.06
2017-05-21T14:42:35.339Z,23.14
2017-05-21T14:43:49.065Z,23.11
2017-05-21T14:45:02.679Z,23.13
2017-05-21T14:46:16.436Z,23.11
2017-05-21T14:47:30.383Z,23.01
2017-05-21T14:48:44.293Z,22.96
2017-05-21T14:49:57.960Z,22.88
2017-05-21T14:51:11.513Z,22.74
2017-05-21T14:52:25.104Z,22.58
2017-05-21T14:53:38.956Z,22.46
2017-05-21T14:54:52.833Z,22.47
2017-05-21T14:56:06.472Z,22.47
2017-05-21T14:57:20.064Z,22.47
2017-05-21T14:58:33.810Z,22.36
2017-05-21T14:59:47.625Z,22.33
2017-05-21T15:01:01.568Z,22.36
2017-05-21T15:02:15.249Z,22.37
2017-05-21T15:03:28.838Z,22.37
2017-05-21T15:04:42.513Z,22.36
2017-05-21T15:05:56.530Z,22.44
2017-05-21T15:07:10.918Z,22.46
2017-05-21T15:08:25.750Z,22.44
2017-05-21T15:09:39.303Z,22.7
2017-05-21T15:10:52.827Z,22.84
2017-05-21T15:12:06.393Z,22.81
2017-05-21T15:13:20.360Z,22.84
2017-05-21T15:14:33.905Z,22.84
2017-05-21T15:15:47.817Z,22.96
2017-05-21T15:17:01.401Z,22.99
2017-05-21T15:18:15.052Z,23.02
2017-05-21T15:19:28.962Z,22.99
2017-05-21T15:20:42.693Z,22.91
2017-05-21T15:21:57.171Z,22.71
2017-05-21T15:23:10.741Z,22.68
2017-05-21T15:24:24.366Z,22.61
2017-05-21T15:25:38.240Z,22.65
2017-05-21T15:26:51.905Z,22.65
2017-05-21T15:28:05.574Z,22.49
2017-05-21T15:29:19.238Z,22.47
2017-05-21T15:30:33.017Z,22.51
2017-05-21T15:31:47.051Z,22.47
2017-05-21T15:33:00.877Z,22.41
2017-05-21T15:34:14.560Z,22.4
2017-05-21T15:35:29.012Z,22.47
2017-05-21T15:36:47.536Z,22.43
2017-05-21T15:38:04.828Z,22.44
2017-05-21T15:39:22.870Z,22.68
2017-05-21T15:40:41.218Z,22.88
2017-05-21T15:41:56.281Z,22.98
2017-05-21T15:43:10.138Z,22.98
2017-05-21T15:44:23.749Z,23.1
2017-05-21T15:45:37.474Z,23.23
2017-05-21T15:46:51.060Z,23.28
2017-05-21T15:48:05.310Z,23.26
2017-05-21T15:49:19.177Z,23.33
2017-05-21T15:50:32.815Z,23.37
2017-05-21T15:51:46.554Z,23.45
2017-05-21T15:53:00.194Z,23.33
2017-05-21T15:54:13.832Z,23.34
2017-05-21T15:55:28.084Z,23.18
2017-05-21T15:56:41.801Z,23.2
2017-05-21T15:57:55.546Z,23.07
2017-05-21T15:59:09.215Z,23.06
2017-05-21T16:00:22.899Z,22.98
2017-05-21T16:01:36.884Z,22.81
2017-05-21T16:02:50.484Z,22.76